createdAt,value
2018-08-23T00:06:26.441Z,19.9
2018-08-23T00:08:11.753Z,19.8
2018-08-23T00:09:14.100Z,19.8
2018-08-23T00:10:58.060Z,19.8
2018-08-23T00:11:59.194Z,19.8
2018-08-23T00:16:52.687Z,19.7
2018-08-23T00:17:53.974Z,19.6
2018-08-23T00:18:54.982Z,19.6
2018-08-23T00:21:12.116Z,19.6
2018-08-23T00:22:13.425Z,19.6
2018-08-23T00:23:14.590Z,19.6
2018-08-23T00:24:15.323Z,19.6
2018-08-23T00:25:16.102Z,19.6
2018-08-23T00:26:16.859Z,19.6
2018-08-23T00:27:17.602Z,19.5
2018-08-23T00:28:18.329Z,19.5
2018-08-23T00:29:19.071Z,19.5
2018-08-23T00:30:19.804Z,19.5
2018-08-23T00:31:20.899Z,19.4
2018-08-23T00:32:21.660Z,19.4
2018-08-23T00:33:22.408Z,19.4
2018-08-23T00:34:23.136Z,19.4
2018-08-23T00:35:23.880Z,19.4
2018-08-23T00:36:25.408Z,19.4
2018-08-23T00:37:26.143Z,19.3
2018-08-23T00:38:27.229Z,19.2
2018-08-23T00:39:28.024Z,19.2
2018-08-23T00:40:28.778Z,19.2
2018-08-23T00:41:29.936Z,19.2
2018-08-23T00:42:31.028Z,19.2
2018-08-23T00:43:32.040Z,19.2
2018-08-23T00:44:32.767Z,19.1
2018-08-23T00:45:33.752Z,19.2
2018-08-23T00:46:34.735Z,19.1
2018-08-23T00:47:35.479Z,19.1
2018-08-23T00:48:36.225Z,19.1
2018-08-23T00:49:37.433Z,19.1
2018-08-23T00:50:38.191Z,19.1
2018-08-23T00:51:38.962Z,19.0
2018-08-23T00:52:39.689Z,19.0
2018-08-23T00:53:40.435Z,19.0
2018-08-23T00:54:41.165Z,19.0
2018-08-23T00:55:41.912Z,18.9
2018-08-23T00:56:42.627Z,18.9
2018-08-23T00:57:43.420Z,19.0
2018-08-23T00:58:44.140Z,18.9
2018-08-23T00:59:45.191Z,19.0
2018-08-23T01:00:45.923Z,18.8
2018-08-23T01:01:46.925Z,18.9
2018-08-23T01:02:47.660Z,18.9
2018-08-23T01:03:48.386Z,18.7
2018-08-23T01:04:49.106Z,18.8
2018-08-23T01:05:49.821Z,18.8
2018-08-23T01:06:50.552Z,18.8
2018-08-23T01:07:51.283Z,18.8
2018-08-23T01:08:52.012Z,18.8
2018-08-23T01:09:52.747Z,18.6
2018-08-23T01:10:53.476Z,18.7
2018-08-23T01:11:54.210Z,18.7
2018-08-23T01:12:54.953Z,18.7
2018-08-23T01:13:55.671Z,18.7
2018-08-23T01:14:56.397Z,18.7
2018-08-23T01:15:57.717Z,18.7
2018-08-23T01:16:58.746Z,18.6
2018-08-23T01:17:59.416Z,18.6
2018-08-23T01:19:00.149Z,18.6
2018-08-23T01:20:01.137Z,18.6
2018-08-23T01:21:01.847Z,18.6
2018-08-23T01:22:02.570Z,18.5
2018-08-23T01:23:03.309Z,18.5
2018-08-23T01:24:04.043Z,18.5
2018-08-23T01:25:04.770Z,18.5
2018-08-23T01:26:05.500Z,18.4
2018-08-23T01:27:06.222Z,18.4
2018-08-23T01:28:06.956Z,18.4
2018-08-23T01:29:07.943Z,18.4
2018-08-23T01:30:08.662Z,18.4
2018-08-23T01:31:09.380Z,18.4
2018-08-23T01:32:10.104Z,18.4
2018-08-23T01:33:11.132Z,18.5
2018-08-23T01:34:11.852Z,18.4
2018-08-23T01:35:12.580Z,18.5
2018-08-23T01:36:13.310Z,18.4
2018-08-23T01:37:14.031Z,18.4
2018-08-23T01:38:14.815Z,18.3
2018-08-23T01:39:15.550Z,18.3
2018-08-23T01:40:16.266Z,18.3
2018-08-23T01:41:17.000Z,18.3
2018-08-23T01:42:17.721Z,18.3
2018-08-23T01:43:18.519Z,18.2
2018-08-23T01:44:19.503Z,18.3
2018-08-23T01:45:20.266Z,18.1
2018-08-23T01:46:20.986Z,18.3
2018-08-23T01:47:21.720Z,18.3
2018-08-23T01:48:22.450Z,18.1
2018-08-23T01:49:23.229Z,18.1
2018-08-23T01:50:24.196Z,18.2
2018-08-23T01:51:24.935Z,18.1
2018-08-23T01:52:25.662Z,18.2
2018-08-23T01:53:26.380Z,18.1
2018-08-23T01:54:27.111Z,18.2
2018-08-23T01:55:27.822Z,18.1
2018-08-23T01:56:28.796Z,18.2
2018-08-23T01:57:29.524Z,18.0
2018-08-23T01:58:30.274Z,18.0
2018-08-23T01:59:31.298Z,18.1
2018-08-23T02:00:32.018Z,18.0
2018-08-23T02:01:32.750Z,18.1
2018-08-23T02:02:33.471Z,18.0
2018-08-23T02:03:34.188Z,18.0
2018-08-23T02:04:34.928Z,18.0
2018-08-23T02:06:51.253Z,18.0
2018-08-23T02:07:51.978Z,17.9
2018-08-23T02:08:52.708Z,17.9
2018-08-23T02:09:53.434Z,17.9
2018-08-23T02:10:54.185Z,17.9
2018-08-23T02:11:54.963Z,17.9
2018-08-23T02:12:55.689Z,17.8
2018-08-23T02:13:56.410Z,17.8
2018-08-23T02:14:57.153Z,17.8
2018-08-23T02:15:57.952Z,17.8
2018-08-23T02:16:59.018Z,17.8
2018-08-23T02:17:59.999Z,17.8
2018-08-23T02:19:01.070Z,17.7
2018-08-23T02:20:02.046Z,17.7
2018-08-23T02:21:02.763Z,17.7
2018-08-23T02:22:03.529Z,17.6
2018-08-23T02:23:04.262Z,17.7
2018-08-23T02:24:05.011Z,17.6
2018-08-23T02:25:05.732Z,17.6
2018-08-23T02:26:06.758Z,17.7
2018-08-23T02:27:07.474Z,17.6
2018-08-23T02:28:08.448Z,17.6
2018-08-23T02:29:09.167Z,17.6
2018-08-23T02:30:09.902Z,17.4
2018-08-23T02:31:10.617Z,17.5
2018-08-23T02:32:11.327Z,17.5
2018-08-23T02:33:12.335Z,17.4
2018-08-23T02:34:13.065Z,17.4
2018-08-23T02:35:15.040Z,17.5
2018-08-23T02:36:15.839Z,17.5
2018-08-23T02:37:16.681Z,17.5
2018-08-23T02:38:17.478Z,17.5
2018-08-23T02:39:19.016Z,17.3
2018-08-23T02:40:20.044Z,17.4
2018-08-23T02:41:20.772Z,17.4
2018-08-23T02:42:21.500Z,17.4
2018-08-23T02:44:24.041Z,17.3
2018-08-23T02:45:24.991Z,17.5
2018-08-23T02:46:25.748Z,17.4
2018-08-23T02:47:26.521Z,17.3
2018-08-23T02:49:09.988Z,17.3
2018-08-23T02:50:10.980Z,17.3
2018-08-23T02:51:11.696Z,17.3
2018-08-23T02:52:55.124Z,17.3
2018-08-23T02:53:55.850Z,17.3
2018-08-23T02:54:56.620Z,17.2
2018-08-23T02:55:57.340Z,17.3
2018-08-23T02:56:58.073Z,17.3
2018-08-23T02:57:58.794Z,17.3
2018-08-23T02:58:59.538Z,17.1
2018-08-23T03:00:00.250Z,17.1
2018-08-23T03:01:00.976Z,17.2
2018-08-23T03:02:01.713Z,17.2
2018-08-23T03:03:02.435Z,17.1
2018-08-23T03:04:03.163Z,17.2
2018-08-23T03:05:03.917Z,17.1
2018-08-23T03:06:04.684Z,17.1
2018-08-23T03:07:05.412Z,17.1
2018-08-23T03:08:06.163Z,17.1
2018-08-23T03:09:06.876Z,17.0
2018-08-23T03:10:07.859Z,17.1
2018-08-23T03:11:08.836Z,17.1
2018-08-23T03:12:09.563Z,17.1
2018-08-23T03:14:25.855Z,17.0
2018-08-23T03:17:57.989Z,17.0
2018-08-23T03:18:59.041Z,16.8
2018-08-23T03:19:59.757Z,16.9
2018-08-23T03:21:00.499Z,16.9
2018-08-23T03:22:01.632Z,17.0
2018-08-23T03:23:02.480Z,17.0
2018-08-23T03:24:03.193Z,16.9
2018-08-23T03:25:04.007Z,16.8
2018-08-23T03:26:05.119Z,16.8
2018-08-23T03:28:07.927Z,16.8
2018-08-23T03:29:08.709Z,16.8
2018-08-23T03:30:52.184Z,16.8
2018-08-23T03:31:52.976Z,16.8
2018-08-23T03:32:53.773Z,16.8
2018-08-23T03:33:54.597Z,16.7
2018-08-23T03:34:55.392Z,16.9
2018-08-23T03:37:29.522Z,16.8
2018-08-23T03:38:30.292Z,16.7
2018-08-23T03:42:19.003Z,16.9
2018-08-23T03:43:19.799Z,16.7
2018-08-23T03:44:22.026Z,16.7
2018-08-23T03:45:23.228Z,16.7
2018-08-23T03:49:10.609Z,16.7
2018-08-23T03:50:11.415Z,16.7
2018-08-23T03:51:12.156Z,16.7
2018-08-23T03:52:13.817Z,16.7
2018-08-23T03:53:14.852Z,16.7
2018-08-23T03:54:15.682Z,16.6
2018-08-23T03:55:16.483Z,16.7
2018-08-23T03:56:17.191Z,16.6
2018-08-23T03:57:18.522Z,16.6
2018-08-23T03:58:19.586Z,16.6
2018-08-23T03:59:20.391Z,16.6
2018-08-23T04:00:21.478Z,16.6
2018-08-23T04:01:22.273Z,16.5
2018-08-23T04:02:23.084Z,16.5
2018-08-23T04:03:23.871Z,16.6
2018-08-23T04:04:24.649Z,16.6
2018-08-23T04:05:25.686Z,16.4
2018-08-23T04:06:26.662Z,16.5
2018-08-23T04:07:27.696Z,16.5
2018-08-23T04:09:43.996Z,16.5
2018-08-23T04:12:00.340Z,16.6
2018-08-23T04:13:01.075Z,16.5
2018-08-23T04:14:01.793Z,16.4
2018-08-23T04:15:02.519Z,16.5
2018-08-23T04:16:03.240Z,16.4
2018-08-23T04:17:03.984Z,16.4
2018-08-23T04:18:04.709Z,16.3
2018-08-23T04:19:05.437Z,16.4
2018-08-23T04:20:06.168Z,16.4
2018-08-23T04:21:06.905Z,16.4
2018-08-23T04:22:07.634Z,16.5
2018-08-23T04:23:08.405Z,16.4
2018-08-23T04:24:09.185Z,16.4
2018-08-23T04:26:25.490Z,16.4
2018-08-23T04:27:26.223Z,16.3
2018-08-23T04:28:27.246Z,16.4
2018-08-23T04:30:43.553Z,16.3
2018-08-23T04:31:44.271Z,16.4
2018-08-23T04:32:45.263Z,16.4
2018-08-23T04:33:46.047Z,16.4
2018-08-23T04:34:46.772Z,16.4
2018-08-23T04:35:47.508Z,16.4
2018-08-23T04:36:48.223Z,16.5
2018-08-23T04:39:04.544Z,16.4
2018-08-23T04:40:05.544Z,16.5
2018-08-23T04:41:06.268Z,16.5
2018-08-23T04:42:07.005Z,16.6
2018-08-23T04:43:07.776Z,16.6
2018-08-23T04:44:08.457Z,16.6
2018-08-23T04:45:09.191Z,16.6
2018-08-23T04:46:09.921Z,16.5
2018-08-23T04:47:10.650Z,16.6
2018-08-23T04:48:11.405Z,16.6
2018-08-23T04:49:12.142Z,16.6
2018-08-23T04:50:12.876Z,16.6
2018-08-23T04:51:13.614Z,16.7
2018-08-23T04:52:14.340Z,16.7
2018-08-23T04:53:15.082Z,16.6
2018-08-23T04:54:15.821Z,16.7
2018-08-23T04:55:16.552Z,16.6
2018-08-23T04:56:17.348Z,16.7
2018-08-23T04:57:18.074Z,16.7
2018-08-23T04:58:18.799Z,16.8
2018-08-23T04:59:19.531Z,16.7
2018-08-23T05:00:20.252Z,16.7
2018-08-23T05:01:20.984Z,16.7
2018-08-23T05:02:22.064Z,16.7
2018-08-23T05:03:22.808Z,16.7
2018-08-23T05:04:23.541Z,16.7
2018-08-23T05:05:24.282Z,16.8
2018-08-23T05:06:25.023Z,16.7
2018-08-23T05:07:25.746Z,16.8
2018-08-23T05:08:26.478Z,16.8
2018-08-23T05:09:27.203Z,16.8
2018-08-23T05:10:27.930Z,16.9
2018-08-23T05:11:28.707Z,16.8
2018-08-23T05:12:29.441Z,16.8
2018-08-23T05:13:30.163Z,16.8
2018-08-23T05:14:30.897Z,16.8
2018-08-23T05:15:32.283Z,16.8
2018-08-23T05:16:33.104Z,16.8
2018-08-23T05:17:33.838Z,16.9
2018-08-23T05:18:34.841Z,17.0
2018-08-23T05:19:35.566Z,16.9
2018-08-23T05:20:36.289Z,16.9
2018-08-23T05:21:37.022Z,16.9
2018-08-23T05:22:37.770Z,16.9
2018-08-23T05:23:38.517Z,16.8
2018-08-23T05:24:39.521Z,16.9
2018-08-23T05:25:40.503Z,16.9
2018-08-23T05:26:41.254Z,17.0
2018-08-23T05:27:41.994Z,17.0
2018-08-23T05:28:42.742Z,17.1
2018-08-23T05:29:43.495Z,17.0
2018-08-23T05:30:44.193Z,17.0
2018-08-23T05:31:44.931Z,17.2
2018-08-23T05:32:45.677Z,17.3
2018-08-23T05:33:46.732Z,17.2
2018-08-23T05:34:47.460Z,17.2
2018-08-23T05:35:48.189Z,17.3
2018-08-23T05:36:48.918Z,17.4
2018-08-23T05:37:49.641Z,17.3
2018-08-23T05:38:50.360Z,17.5
2018-08-23T05:39:51.091Z,17.4
2018-08-23T05:40:51.818Z,17.5
2018-08-23T05:41:52.559Z,17.6
2018-08-23T05:42:53.283Z,17.6
2018-08-23T05:43:54.009Z,17.6
2018-08-23T05:44:54.745Z,17.7
2018-08-23T05:45:55.485Z,17.7
2018-08-23T05:46:56.212Z,17.7
2018-08-23T05:47:56.941Z,17.7
2018-08-23T05:48:57.664Z,17.8
2018-08-23T05:49:58.404Z,17.8
2018-08-23T05:50:59.467Z,17.9
2018-08-23T05:52:00.195Z,17.9
2018-08-23T05:53:00.932Z,18.0
2018-08-23T05:54:01.656Z,18.0
2018-08-23T05:55:02.394Z,18.0
2018-08-23T05:56:03.127Z,18.1
2018-08-23T05:57:03.851Z,18.1
2018-08-23T05:58:04.581Z,18.1
2018-08-23T05:59:05.306Z,18.1
2018-08-23T06:00:06.039Z,18.3
2018-08-23T06:01:06.758Z,18.2
2018-08-23T06:02:07.496Z,18.4
2018-08-23T06:03:08.281Z,18.5
2018-08-23T06:04:08.961Z,18.5
2018-08-23T06:05:09.686Z,18.5
2018-08-23T06:06:10.431Z,18.5
2018-08-23T06:07:11.172Z,18.5
2018-08-23T06:08:11.924Z,18.6
2018-08-23T06:09:12.629Z,18.7
2018-08-23T06:10:13.357Z,18.7
2018-08-23T06:11:14.091Z,18.7
2018-08-23T06:12:15.060Z,18.8
2018-08-23T06:13:15.794Z,18.8
2018-08-23T06:14:16.567Z,18.8
2018-08-23T06:15:17.253Z,18.8
2018-08-23T06:16:17.985Z,18.9
2018-08-23T06:17:19.023Z,19.0
2018-08-23T06:18:19.751Z,19.1
2018-08-23T06:19:20.483Z,19.0
2018-08-23T06:20:21.208Z,19.2
2018-08-23T06:21:21.937Z,19.2
2018-08-23T06:22:22.718Z,19.3
2018-08-23T06:23:23.442Z,19.4
2018-08-23T06:24:24.162Z,19.5
2018-08-23T06:25:24.903Z,19.7
2018-08-23T06:26:25.638Z,19.7
2018-08-23T06:27:26.462Z,19.8
2018-08-23T06:28:27.115Z,19.8
2018-08-23T06:29:27.833Z,19.9
2018-08-23T06:30:28.565Z,20.0
2018-08-23T06:31:29.292Z,20.1
2018-08-23T06:32:30.023Z,20.2
2018-08-23T06:33:30.852Z,20.3
2018-08-23T06:34:31.487Z,20.3
2018-08-23T06:35:32.241Z,20.5
2018-08-23T06:36:32.946Z,20.5
2018-08-23T06:37:33.690Z,20.6
2018-08-23T06:38:34.409Z,20.8
2018-08-23T06:39:35.117Z,20.8
2018-08-23T06:40:35.846Z,20.9
2018-08-23T06:41:36.583Z,21.0
2018-08-23T06:42:37.315Z,21.1
2018-08-23T06:43:38.054Z,21.2
2018-08-23T06:44:38.777Z,21.2
2018-08-23T06:45:39.519Z,21.3
2018-08-23T06:46:40.246Z,21.3
2018-08-23T06:47:41.274Z,21.5
2018-08-23T06:48:42.199Z,21.5
2018-08-23T06:49:42.923Z,21.5
2018-08-23T06:50:43.651Z,21.6
2018-08-23T06:51:44.405Z,21.7
2018-08-23T06:52:45.105Z,21.8
2018-08-23T06:53:46.084Z,21.9
2018-08-23T06:54:46.818Z,21.9
2018-08-23T06:55:47.625Z,21.8
2018-08-23T06:56:48.365Z,21.9
2018-08-23T06:57:49.105Z,22.0
2018-08-23T06:58:49.826Z,22.2
2018-08-23T06:59:50.577Z,22.2
2018-08-23T07:00:51.310Z,22.3
2018-08-23T07:01:52.042Z,22.3
2018-08-23T07:02:53.031Z,22.4
2018-08-23T07:03:53.751Z,22.5
2018-08-23T07:04:54.484Z,22.4
2018-08-23T07:05:55.216Z,22.4
2018-08-23T07:06:55.942Z,22.4
2018-08-23T07:07:56.669Z,22.5
2018-08-23T07:08:57.399Z,22.6
2018-08-23T07:09:58.144Z,22.7
2018-08-23T07:10:58.875Z,22.7
2018-08-23T07:11:59.608Z,22.7
2018-08-23T07:13:00.343Z,22.6
2018-08-23T07:14:01.076Z,22.8
2018-08-23T07:15:01.813Z,22.8
2018-08-23T07:16:02.546Z,23.0
2018-08-23T07:17:03.849Z,23.1
2018-08-23T07:18:04.656Z,23.1
2018-08-23T07:19:05.664Z,23.2
2018-08-23T07:20:06.379Z,23.3
2018-08-23T07:21:07.160Z,23.3
2018-08-23T07:22:07.895Z,23.5
2018-08-23T07:23:08.615Z,23.6
2018-08-23T07:24:09.383Z,23.7
2018-08-23T07:25:10.079Z,23.7
2018-08-23T07:26:10.838Z,23.6
2018-08-23T07:27:11.547Z,23.7
2018-08-23T07:28:12.327Z,23.8
2018-08-23T07:29:13.061Z,24.0
2018-08-23T07:30:13.824Z,24.1
2018-08-23T07:31:14.525Z,24.1
2018-08-23T07:32:15.268Z,24.3
2018-08-23T07:33:16.051Z,24.4
2018-08-23T07:34:16.734Z,24.3
2018-08-23T07:35:17.463Z,24.4
2018-08-23T07:36:18.194Z,24.4
2018-08-23T07:37:18.928Z,24.2
2018-08-23T07:38:19.651Z,24.1
2018-08-23T07:39:20.482Z,24.3
2018-08-23T07:40:21.112Z,24.2
2018-08-23T07:41:21.839Z,24.2
2018-08-23T07:42:22.843Z,24.3
2018-08-23T07:43:23.558Z,24.3
2018-08-23T07:44:24.293Z,24.3
2018-08-23T07:45:25.025Z,24.1
2018-08-23T07:46:25.754Z,24.0
2018-08-23T07:47:26.494Z,24.2
2018-08-23T07:48:27.229Z,24.4
2018-08-23T07:49:27.962Z,24.3
2018-08-23T07:50:28.697Z,24.4
2018-08-23T07:51:29.428Z,24.4
2018-08-23T07:52:30.212Z,24.4
2018-08-23T07:53:31.533Z,24.1
2018-08-23T07:54:32.361Z,24.2
2018-08-23T07:55:33.457Z,24.2
2018-08-23T07:56:34.183Z,24.4
2018-08-23T07:57:34.935Z,24.3
2018-08-23T07:58:35.665Z,24.3
2018-08-23T07:59:36.402Z,24.2
2018-08-23T08:00:37.494Z,24.4
2018-08-23T08:01:38.227Z,24.3
2018-08-23T08:02:38.961Z,24.4
2018-08-23T08:03:39.687Z,24.5
2018-08-23T08:04:40.423Z,24.5
2018-08-23T08:05:41.528Z,24.6
2018-08-23T08:06:42.266Z,24.8
2018-08-23T08:07:43.031Z,24.8
2018-08-23T08:08:43.778Z,24.9
2018-08-23T08:09:44.529Z,25.0
2018-08-23T08:10:45.264Z,24.9
2018-08-23T08:11:46.019Z,24.9
2018-08-23T08:12:46.743Z,24.8
2018-08-23T08:13:47.480Z,24.7
2018-08-23T08:14:48.268Z,24.9
2018-08-23T08:15:48.955Z,25.3
2018-08-23T08:16:49.696Z,25.5
2018-08-23T08:17:50.418Z,25.5
2018-08-23T08:18:51.144Z,25.7
2018-08-23T08:19:51.878Z,26.1
2018-08-23T08:20:52.653Z,26.4
2018-08-23T08:21:53.385Z,26.4
2018-08-23T08:22:54.130Z,26.4
2018-08-23T08:23:54.854Z,26.4
2018-08-23T08:24:55.585Z,26.5
2018-08-23T08:25:56.328Z,26.4
2018-08-23T08:26:57.059Z,26.3
2018-08-23T08:27:57.783Z,26.4
2018-08-23T08:28:58.518Z,26.4
2018-08-23T08:29:59.236Z,26.5
2018-08-23T08:30:59.972Z,26.6
2018-08-23T08:32:00.715Z,26.8
2018-08-23T08:33:01.832Z,26.9
2018-08-23T08:34:02.534Z,26.5
2018-08-23T08:35:03.267Z,26.5
2018-08-23T08:36:04.015Z,26.5
2018-08-23T08:37:04.740Z,26.6
2018-08-23T08:38:05.528Z,26.8
2018-08-23T08:39:06.266Z,27.0
2018-08-23T08:40:07.023Z,27.0
2018-08-23T08:41:07.753Z,26.9
2018-08-23T08:42:08.495Z,27.0
2018-08-23T08:43:09.219Z,26.8
2018-08-23T08:44:09.958Z,26.5
2018-08-23T08:45:10.952Z,26.4
2018-08-23T08:46:11.678Z,26.5
2018-08-23T08:47:12.415Z,26.8
2018-08-23T08:48:13.163Z,26.7
2018-08-23T08:49:13.922Z,26.6
2018-08-23T08:50:14.650Z,26.7
2018-08-23T08:51:15.396Z,27.0
2018-08-23T08:52:16.134Z,26.9
2018-08-23T08:53:16.867Z,27.1
2018-08-23T08:54:17.607Z,27.4
2018-08-23T08:55:18.342Z,27.6
2018-08-23T08:56:19.075Z,27.8
2018-08-23T08:57:19.903Z,28.0
2018-08-23T08:58:20.555Z,28.2
2018-08-23T08:59:21.280Z,28.1
2018-08-23T09:00:22.033Z,28.2
2018-08-23T09:01:22.766Z,28.3
2018-08-23T09:02:23.521Z,28.5
2018-08-23T09:03:24.245Z,28.8
2018-08-23T09:04:24.983Z,28.9
2018-08-23T09:05:25.722Z,29.1
2018-08-23T09:06:27.063Z,29.1
2018-08-23T09:07:27.801Z,28.8
2018-08-23T09:08:28.540Z,28.8
2018-08-23T09:09:29.272Z,28.7
2018-08-23T09:10:30.269Z,28.4
2018-08-23T09:11:31.348Z,28.4
2018-08-23T09:12:32.097Z,27.9
2018-08-23T09:13:32.829Z,27.7
2018-08-23T09:14:33.565Z,27.5
2018-08-23T09:15:34.294Z,27.7
2018-08-23T09:16:35.022Z,27.6
2018-08-23T09:17:35.761Z,27.7
2018-08-23T09:18:36.511Z,27.9
2018-08-23T09:19:37.239Z,27.9
2018-08-23T09:20:38.030Z,28.0
2018-08-23T09:21:38.710Z,28.2
2018-08-23T09:22:39.456Z,28.1
2018-08-23T09:23:40.195Z,28.1
2018-08-23T09:24:40.932Z,28.0
2018-08-23T09:25:41.664Z,27.9
2018-08-23T09:26:42.417Z,28.3
2018-08-23T09:27:43.140Z,28.6
2018-08-23T09:28:43.929Z,28.6
2018-08-23T09:29:44.664Z,28.5
2018-08-23T09:30:45.399Z,28.9
2018-08-23T09:31:46.129Z,29.3
2018-08-23T09:32:46.857Z,29.7
2018-08-23T09:33:47.655Z,29.9
2018-08-23T09:34:48.390Z,29.8
2018-08-23T09:35:49.125Z,30.0
2018-08-23T09:36:49.854Z,30.2
2018-08-23T09:37:50.597Z,30.3
2018-08-23T09:38:51.375Z,30.5
2018-08-23T09:39:52.107Z,30.7
2018-08-23T09:40:52.847Z,30.7
2018-08-23T09:41:53.583Z,29.9
2018-08-23T09:42:54.363Z,29.8
2018-08-23T09:43:55.053Z,30.0
2018-08-23T09:44:55.796Z,29.9
2018-08-23T09:45:56.535Z,29.9
2018-08-23T09:46:57.270Z,29.7
2018-08-23T09:47:58.005Z,29.8
2018-08-23T09:48:58.751Z,29.9
2018-08-23T09:49:59.593Z,30.0
2018-08-23T09:51:00.299Z,29.7
2018-08-23T09:52:01.025Z,29.4
2018-08-23T09:53:01.764Z,29.4
2018-08-23T09:54:02.510Z,29.8
2018-08-23T09:55:03.240Z,29.9
2018-08-23T09:56:03.977Z,29.8
2018-08-23T09:57:04.700Z,30.1
2018-08-23T09:58:05.447Z,30.1
2018-08-23T09:59:06.196Z,30.3
2018-08-23T10:00:07.317Z,30.4
2018-08-23T10:01:08.079Z,30.6
2018-08-23T10:02:08.808Z,30.3
2018-08-23T10:03:09.894Z,30.1
2018-08-23T10:04:10.653Z,30.2
2018-08-23T10:05:11.351Z,29.8
2018-08-23T10:06:12.338Z,30.2
2018-08-23T10:07:13.080Z,30.2
2018-08-23T10:08:13.828Z,30.2
2018-08-23T10:09:14.571Z,30.4
2018-08-23T10:10:15.305Z,30.1
2018-08-23T10:11:16.087Z,30.0
2018-08-23T10:12:16.779Z,30.2
2018-08-23T10:13:17.536Z,30.4
2018-08-23T10:14:18.269Z,30.8
2018-08-23T10:15:19.026Z,30.7
2018-08-23T10:16:19.764Z,30.7
2018-08-23T10:17:20.749Z,30.6
2018-08-23T10:18:21.836Z,31.0
2018-08-23T10:19:22.597Z,31.6
2018-08-23T10:20:23.324Z,32.0
2018-08-23T10:21:24.077Z,32.3
2018-08-23T10:22:24.812Z,32.8
2018-08-23T10:23:25.559Z,32.7
2018-08-23T10:24:26.293Z,32.1
2018-08-23T10:25:27.029Z,32.2
2018-08-23T10:26:27.795Z,32.1
2018-08-23T10:27:28.495Z,31.5
2018-08-23T10:28:29.223Z,31.1
2018-08-23T10:29:29.962Z,31.5
2018-08-23T10:30:30.693Z,31.6
2018-08-23T10:31:31.436Z,31.6
2018-08-23T10:32:32.171Z,31.4
2018-08-23T10:33:32.919Z,31.6
2018-08-23T10:34:33.994Z,31.5
2018-08-23T10:35:34.738Z,31.5
2018-08-23T10:36:35.465Z,31.5
2018-08-23T10:37:36.197Z,31.5
2018-08-23T10:38:36.931Z,31.5
2018-08-23T10:39:37.710Z,31.1
2018-08-23T10:40:38.457Z,30.3
2018-08-23T10:41:39.197Z,30.5
2018-08-23T10:42:39.947Z,31.0
2018-08-23T10:43:40.678Z,31.5
2018-08-23T10:44:41.486Z,30.9
2018-08-23T10:45:42.145Z,30.2
2018-08-23T10:46:42.877Z,29.9
2018-08-23T10:47:43.623Z,30.3
2018-08-23T10:48:44.360Z,30.9
2018-08-23T10:49:45.087Z,31.5
2018-08-23T10:50:45.918Z,31.5
2018-08-23T10:51:46.563Z,31.0
2018-08-23T10:52:47.295Z,31.4
2018-08-23T10:53:48.034Z,31.2
2018-08-23T10:54:48.776Z,31.2
2018-08-23T10:55:49.530Z,31.5
2018-08-23T10:56:50.249Z,32.0
2018-08-23T10:57:51.235Z,32.0
2018-08-23T10:58:51.981Z,32.1
2018-08-23T10:59:52.726Z,32.0
2018-08-23T11:00:53.470Z,32.4
2018-08-23T11:01:54.258Z,32.1
2018-08-23T11:02:54.999Z,32.4
2018-08-23T11:03:55.737Z,32.7
2018-08-23T11:04:56.487Z,32.9
2018-08-23T11:05:57.217Z,33.1
2018-08-23T11:06:58.015Z,32.8
2018-08-23T11:07:58.743Z,32.5
2018-08-23T11:08:59.492Z,32.7
2018-08-23T11:10:00.270Z,33.0
2018-08-23T11:11:01.264Z,33.2
2018-08-23T11:12:01.997Z,33.4
2018-08-23T11:13:02.731Z,33.4
2018-08-23T11:14:03.497Z,32.7
2018-08-23T11:15:04.232Z,32.3
2018-08-23T11:16:04.970Z,32.5
2018-08-23T11:17:05.816Z,32.7
2018-08-23T11:18:06.445Z,32.8
2018-08-23T11:19:07.183Z,33.0
2018-08-23T11:20:07.927Z,33.5
2018-08-23T11:21:08.673Z,33.7
2018-08-23T11:22:09.403Z,33.7
2018-08-23T11:23:10.200Z,33.6
2018-08-23T11:24:11.224Z,33.4
2018-08-23T11:25:11.967Z,33.6
2018-08-23T11:26:12.694Z,34.1
2018-08-23T11:27:13.437Z,34.1
2018-08-23T11:28:14.448Z,34.3
2018-08-23T11:29:15.183Z,34.6
2018-08-23T11:30:15.918Z,35.1
2018-08-23T11:31:16.643Z,35.0
2018-08-23T11:32:17.378Z,35.4
2018-08-23T11:33:18.112Z,34.9
2018-08-23T11:34:19.108Z,34.5
2018-08-23T11:35:19.847Z,34.2
2018-08-23T11:36:20.596Z,34.2
2018-08-23T11:37:21.322Z,34.3
2018-08-23T11:38:22.079Z,34.1
2018-08-23T11:39:22.810Z,34.5
2018-08-23T11:40:23.562Z,34.7
2018-08-23T11:41:24.303Z,35.1
2018-08-23T11:42:25.082Z,35.0
2018-08-23T11:43:25.833Z,34.3
2018-08-23T11:44:26.577Z,33.6
2018-08-23T11:45:27.311Z,34.0
2018-08-23T11:46:28.061Z,34.0
2018-08-23T11:47:28.789Z,33.9
2018-08-23T11:48:29.526Z,33.4
2018-08-23T11:49:30.261Z,33.2
2018-08-23T11:50:31.006Z,33.6
2018-08-23T11:51:31.746Z,33.8
2018-08-23T11:52:32.495Z,34.0
2018-08-23T11:53:33.358Z,34.3
2018-08-23T11:54:34.232Z,34.6
2018-08-23T11:55:35.007Z,34.9
2018-08-23T11:56:35.740Z,34.5
2018-08-23T11:57:36.499Z,34.4
2018-08-23T11:58:37.240Z,34.2
2018-08-23T11:59:37.987Z,33.0
2018-08-23T12:00:39.332Z,32.7
2018-08-23T12:01:40.070Z,31.8
2018-08-23T12:02:40.804Z,31.7
2018-08-23T12:03:41.544Z,32.0
2018-08-23T12:04:42.293Z,32.5
2018-08-23T12:05:43.040Z,32.1
2018-08-23T12:06:43.786Z,32.6
2018-08-23T12:07:44.528Z,33.2
2018-08-23T12:08:45.262Z,33.5
2018-08-23T12:09:46.057Z,33.7
2018-08-23T12:10:46.736Z,34.2
2018-08-23T12:11:47.479Z,34.1
2018-08-23T12:12:48.215Z,33.8
2018-08-23T12:13:49.010Z,34.0
2018-08-23T12:14:49.749Z,34.1
2018-08-23T12:15:50.548Z,33.9
2018-08-23T12:16:51.228Z,33.0
2018-08-23T12:17:51.978Z,33.5
2018-08-23T12:18:52.971Z,33.9
2018-08-23T12:19:53.713Z,34.3
2018-08-23T12:20:54.436Z,34.8
2018-08-23T12:21:55.172Z,35.1
2018-08-23T12:22:55.967Z,35.3
2018-08-23T12:23:56.703Z,35.7
2018-08-23T12:24:57.504Z,36.0
2018-08-23T12:25:58.389Z,35.4
2018-08-23T12:26:58.975Z,35.2
2018-08-23T12:27:59.705Z,34.8
2018-08-23T12:29:00.461Z,34.9
2018-08-23T12:30:01.256Z,35.1
2018-08-23T12:31:02.000Z,35.2
2018-08-23T12:32:02.734Z,34.8
2018-08-23T12:33:03.477Z,34.7
2018-08-23T12:34:04.225Z,34.0
2018-08-23T12:35:04.971Z,33.9
2018-08-23T12:36:05.709Z,34.1
2018-08-23T12:37:06.451Z,34.7
2018-08-23T12:38:07.199Z,34.6
2018-08-23T12:39:07.953Z,34.9
2018-08-23T12:40:08.737Z,34.6
2018-08-23T12:41:09.423Z,34.4
2018-08-23T12:42:10.167Z,34.3
2018-08-23T12:43:10.914Z,34.3
2018-08-23T12:44:11.651Z,34.1
2018-08-23T12:45:12.397Z,34.1
2018-08-23T12:46:13.130Z,33.5
2018-08-23T12:47:13.869Z,33.5
2018-08-23T12:48:14.619Z,34.2
2018-08-23T12:49:15.376Z,34.4
2018-08-23T12:50:16.140Z,34.3
2018-08-23T12:51:16.847Z,34.2
2018-08-23T12:52:17.591Z,33.4
2018-08-23T12:53:18.379Z,33.8
2018-08-23T12:54:19.077Z,34.4
2018-08-23T12:55:19.817Z,34.9
2018-08-23T12:56:20.614Z,35.1
2018-08-23T12:57:21.303Z,35.5
2018-08-23T12:58:22.047Z,34.6
2018-08-23T12:59:22.781Z,34.3
2018-08-23T13:00:23.537Z,34.2
2018-08-23T13:01:24.284Z,33.8
2018-08-23T13:02:25.069Z,33.5
2018-08-23T13:03:25.788Z,33.8
2018-08-23T13:04:26.597Z,34.3
2018-08-23T13:07:58.400Z,33.4
2018-08-23T13:08:59.150Z,33.5
2018-08-23T13:09:59.874Z,33.5
2018-08-23T13:11:00.654Z,33.8
2018-08-23T13:12:01.381Z,33.9
2018-08-23T13:13:02.183Z,34.0
2018-08-23T13:14:02.920Z,34.0
2018-08-23T13:15:03.660Z,33.5
2018-08-23T13:16:04.664Z,33.5
2018-08-23T13:17:05.396Z,33.4
2018-08-23T13:18:06.387Z,33.3
2018-08-23T13:19:07.127Z,33.2
2018-08-23T13:20:07.874Z,32.8
2018-08-23T13:21:08.611Z,32.7
2018-08-23T13:22:09.397Z,32.4
2018-08-23T13:23:10.142Z,32.3
2018-08-23T13:24:10.889Z,32.7
2018-08-23T13:25:11.914Z,32.9
2018-08-23T13:26:12.667Z,33.2
2018-08-23T13:28:29.284Z,34.0
2018-08-23T13:29:30.092Z,34.4
2018-08-23T13:30:31.080Z,34.4
2018-08-23T13:31:31.826Z,34.7
2018-08-23T13:32:32.902Z,34.9
2018-08-23T13:33:33.641Z,35.1
2018-08-23T13:34:34.386Z,35.0
2018-08-23T13:35:35.196Z,34.9
2018-08-23T13:36:35.912Z,34.5
2018-08-23T13:37:36.636Z,34.4
2018-08-23T13:38:37.373Z,34.6
2018-08-23T13:39:38.107Z,34.2
2018-08-23T13:40:38.850Z,33.6
2018-08-23T13:41:39.591Z,33.9
2018-08-23T13:42:40.389Z,34.3
2018-08-23T13:43:41.081Z,34.4
2018-08-23T13:48:28.497Z,32.6
2018-08-23T13:49:29.187Z,32.1
2018-08-23T13:50:29.933Z,32.2
2018-08-23T13:51:30.672Z,32.1
2018-08-23T13:52:31.424Z,32.4
2018-08-23T13:53:32.449Z,32.8
2018-08-23T13:54:33.244Z,33.4
2018-08-23T13:55:33.955Z,33.8
2018-08-23T13:56:34.745Z,34.1
2018-08-23T13:57:35.609Z,34.3
2018-08-23T13:58:36.350Z,34.2
2018-08-23T13:59:37.091Z,33.7
2018-08-23T14:00:37.811Z,33.2
2018-08-23T14:01:38.604Z,33.3
2018-08-23T14:02:39.346Z,33.1
2018-08-23T14:03:40.078Z,32.9
2018-08-23T14:04:41.063Z,33.0
2018-08-23T14:05:41.836Z,32.9
2018-08-23T14:06:42.834Z,32.8
2018-08-23T14:07:43.618Z,32.5
2018-08-23T14:08:44.299Z,32.3
2018-08-23T14:09:45.289Z,32.6
2018-08-23T14:10:46.014Z,32.8
2018-08-23T14:11:47.378Z,32.9